sensor_id;sensor_type;location;lat;lon;timestamp;P1;durP1;ratioP1;P2;durP2;ratioP2
50968;SDS011;36982;51.474;7.228;2022-11-20T00:01:25;20.20;;;11.27;;
50968;SDS011;36982;51.474;7.228;2022-11-20T00:03:52;17.57;;;10.47;;
50968;SDS011;36982;51.474;7.228;2022-11-20T00:06:19;17.13;;;10.57;;
50968;SDS011;36982;51.474;7.228;2022-11-20T00:08:46;15.47;;;10.27;;
50968;SDS011;36982;51.474;7.228;2022-11-20T00:11:19;16.83;;;11.37;;
50968;SDS011;36982;51.474;7.228;2022-11-20T00:13:47;17.07;;;10.47;;
50968;SDS011;36982;51.474;7.228;2022-11-20T00:16:15;16.33;;;10.40;;
50968;SDS011;36982;51.474;7.228;2022-11-20T00:18:42;15.83;;;10.67;;
50968;SDS011;36982;51.474;7.228;2022-11-20T00:21:15;17.70;;;10.80;;
50968;SDS011;36982;51.474;7.228;2022-11-20T00:23:43;15.80;;;10.23;;
50968;SDS011;36982;51.474;7.228;2022-11-20T00:26:10;15.47;;;10.00;;
50968;SDS011;36982;51.474;7.228;2022-11-20T00:28:38;14.67;;;10.10;;
50968;SDS011;36982;51.474;7.228;2022-11-20T00:31:14;17.23;;;9.90;;
50968;SDS011;36982;51.474;7.228;2022-11-20T00:33:41;18.90;;;9.93;;
50968;SDS011;36982;51.474;7.228;2022-11-20T00:36:09;14.30;;;9.57;;
50968;SDS011;36982;51.474;7.228;2022-11-20T00:38:36;14.87;;;9.70;;
50968;SDS011;36982;51.474;7.228;2022-11-20T00:41:03;14.70;;;9.50;;
50968;SDS011;36982;51.474;7.228;2022-11-20T00:43:31;16.63;;;10.10;;
50968;SDS011;36982;51.474;7.228;2022-11-20T00:46:00;15.17;;;9.53;;
50968;SDS011;36982;51.474;7.228;2022-11-20T00:48:28;15.03;;;9.57;;
50968;SDS011;36982;51.474;7.228;2022-11-20T00:50:54;13.27;;;8.93;;
50968;SDS011;36982;51.474;7.228;2022-11-20T00:53:20;14.87;;;9.23;;
50968;SDS011;36982;51.474;7.228;2022-11-20T00:55:59;14.30;;;9.60;;
50968;SDS011;36982;51.474;7.228;2022-11-20T00:58:30;16.80;;;9.93;;
50968;SDS011;36982;51.474;7.228;2022-11-20T01:01:05;17.20;;;9.93;;
50968;SDS011;36982;51.474;7.228;2022-11-20T01:03:36;13.47;;;9.07;;
50968;SDS011;36982;51.474;7.228;2022-11-20T01:06:11;17.00;;;9.90;;
50968;SDS011;36982;51.474;7.228;2022-11-20T01:08:41;13.33;;;9.13;;
50968;SDS011;36982;51.474;7.228;2022-11-20T01:11:09;13.73;;;9.97;;
50968;SDS011;36982;51.474;7.228;2022-11-20T01:13:42;14.30;;;9.77;;
50968;SDS011;36982;51.474;7.228;2022-11-20T01:16:29;15.37;;;9.90;;
50968;SDS011;36982;51.474;7.228;2022-11-20T01:18:57;16.63;;;10.23;;
50968;SDS011;36982;51.474;7.228;2022-11-20T01:21:29;17.50;;;9.63;;
50968;SDS011;36982;51.474;7.228;2022-11-20T01:24:00;15.37;;;9.70;;
50968;SDS011;36982;51.474;7.228;2022-11-20T01:26:28;16.87;;;10.27;;
50968;SDS011;36982;51.474;7.228;2022-11-20T01:28:56;17.13;;;10.13;;
50968;SDS011;36982;51.474;7.228;2022-11-20T01:31:24;14.93;;;9.70;;
50968;SDS011;36982;51.474;7.228;2022-11-20T01:33:52;15.73;;;10.27;;
50968;SDS011;36982;51.474;7.228;2022-11-20T01:36:20;16.47;;;10.03;;
50968;SDS011;36982;51.474;7.228;2022-11-20T01:38:50;16.50;;;9.77;;
50968;SDS011;36982;51.474;7.228;2022-11-20T01:41:17;15.60;;;9.53;;
50968;SDS011;36982;51.474;7.228;2022-11-20T01:44:02;16.40;;;9.70;;
50968;SDS011;36982;51.474;7.228;2022-11-20T01:46:29;13.90;;;9.10;;
50968;SDS011;36982;51.474;7.228;2022-11-20T01:49:02;17.47;;;9.63;;
50968;SDS011;36982;51.474;7.228;2022-11-20T01:54:11;15.83;;;9.27;;
50968;SDS011;36982;51.474;7.228;2022-11-20T01:56:51;15.93;;;9.90;;
50968;SDS011;36982;51.474;7.228;2022-11-20T01:59:19;15.87;;;9.63;;
50968;SDS011;36982;51.474;7.228;2022-11-20T02:01:47;16.73;;;10.43;;
50968;SDS011;36982;51.474;7.228;2022-11-20T02:04:13;14.83;;;9.33;;
50968;SDS011;36982;51.474;7.228;2022-11-20T02:06:50;13.40;;;8.93;;
50968;SDS011;36982;51.474;7.228;2022-11-20T02:09:24;15.40;;;9.70;;
50968;SDS011;36982;51.474;7.228;2022-11-20T02:11:50;12.73;;;9.20;;
50968;SDS011;36982;51.474;7.228;2022-11-20T02:14:16;16.93;;;9.90;;
50968;SDS011;36982;51.474;7.228;2022-11-20T02:16:46;13.97;;;9.47;;
50968;SDS011;36982;51.474;7.228;2022-11-20T02:19:16;14.40;;;9.73;;
50968;SDS011;36982;51.474;7.228;2022-11-20T02:22:07;13.50;;;9.40;;
50968;SDS011;36982;51.474;7.228;2022-11-20T02:24:42;14.23;;;9.43;;
50968;SDS011;36982;51.474;7.228;2022-11-20T02:27:10;17.33;;;9.30;;
50968;SDS011;36982;51.474;7.228;2022-11-20T02:29:48;14.43;;;10.00;;
50968;SDS011;36982;51.474;7.228;2022-11-20T02:32:28;14.10;;;9.63;;
50968;SDS011;36982;51.474;7.228;2022-11-20T02:34:54;13.77;;;8.90;;
50968;SDS011;36982;51.474;7.228;2022-11-20T02:37:20;15.20;;;9.57;;
50968;SDS011;36982;51.474;7.228;2022-11-20T02:39:46;15.00;;;9.43;;
50968;SDS011;36982;51.474;7.228;2022-11-20T02:42:14;14.50;;;8.67;;
50968;SDS011;36982;51.474;7.228;2022-11-20T02:44:40;14.97;;;9.63;;
50968;SDS011;36982;51.474;7.228;2022-11-20T02:47:06;16.87;;;9.90;;
50968;SDS011;36982;51.474;7.228;2022-11-20T02:49:31;14.07;;;9.00;;
50968;SDS011;36982;51.474;7.228;2022-11-20T02:51:57;14.60;;;9.17;;
50968;SDS011;36982;51.474;7.228;2022-11-20T02:54:23;15.07;;;9.37;;
50968;SDS011;36982;51.474;7.228;2022-11-20T02:56:49;15.23;;;9.30;;
50968;SDS011;36982;51.474;7.228;2022-11-20T02:59:14;13.80;;;9.30;;
50968;SDS011;36982;51.474;7.228;2022-11-20T03:01:40;15.63;;;9.93;;
50968;SDS011;36982;51.474;7.228;2022-11-20T03:04:06;15.43;;;10.37;;
50968;SDS011;36982;51.474;7.228;2022-11-20T03:06:31;15.40;;;10.40;;
50968;SDS011;36982;51.474;7.228;2022-11-20T03:08:57;16.93;;;9.83;;
50968;SDS011;36982;51.474;7.228;2022-11-20T03:11:23;16.30;;;10.63;;
50968;SDS011;36982;51.474;7.228;2022-11-20T03:13:49;15.00;;;9.63;;
50968;SDS011;36982;51.474;7.228;2022-11-20T03:16:15;14.37;;;9.07;;
50968;SDS011;36982;51.474;7.228;2022-11-20T03:18:42;14.43;;;9.90;;
50968;SDS011;36982;51.474;7.228;2022-11-20T03:21:09;14.87;;;9.57;;
50968;SDS011;36982;51.474;7.228;2022-11-20T03:23:36;12.80;;;9.07;;
50968;SDS011;36982;51.474;7.228;2022-11-20T03:28:37;15.00;;;10.30;;
50968;SDS011;36982;51.474;7.228;2022-11-20T03:31:07;15.23;;;9.87;;
50968;SDS011;36982;51.474;7.228;2022-11-20T03:33:38;15.00;;;10.73;;
50968;SDS011;36982;51.474;7.228;2022-11-20T03:36:05;15.23;;;9.47;;
50968;SDS011;36982;51.474;7.228;2022-11-20T03:38:33;18.57;;;10.03;;
50968;SDS011;36982;51.474;7.228;2022-11-20T03:41:03;15.93;;;10.60;;
50968;SDS011;36982;51.474;7.228;2022-11-20T03:43:30;17.57;;;9.67;;
50968;SDS011;36982;51.474;7.228;2022-11-20T03:45:56;16.67;;;10.43;;
50968;SDS011;36982;51.474;7.228;2022-11-20T03:48:22;16.87;;;10.63;;
50968;SDS011;36982;51.474;7.228;2022-11-20T03:50:48;15.63;;;10.20;;
50968;SDS011;36982;51.474;7.228;2022-11-20T03:53:14;15.50;;;9.43;;
50968;SDS011;36982;51.474;7.228;2022-11-20T03:55:40;16.27;;;9.70;;
50968;SDS011;36982;51.474;7.228;2022-11-20T03:58:05;15.30;;;9.70;;
50968;SDS011;36982;51.474;7.228;2022-11-20T04:00:31;14.87;;;9.33;;
50968;SDS011;36982;51.474;7.228;2022-11-20T04:03:00;16.23;;;10.30;;
50968;SDS011;36982;51.474;7.228;2022-11-20T04:05:27;17.47;;;10.17;;
50968;SDS011;36982;51.474;7.228;2022-11-20T04:07:52;14.20;;;9.50;;
50968;SDS011;36982;51.474;7.228;2022-11-20T04:10:18;16.60;;;10.33;;
50968;SDS011;36982;51.474;7.228;2022-11-20T04:12:44;16.07;;;10.23;;
50968;SDS011;36982;51.474;7.228;2022-11-20T04:15:09;15.60;;;10.20;;
50968;SDS011;36982;51.474;7.228;2022-11-20T04:17:35;15.73;;;9.10;;
50968;SDS011;36982;51.474;7.228;2022-11-20T04:20:01;14.93;;;9.70;;
50968;SDS011;36982;51.474;7.228;2022-11-20T04:22:27;15.43;;;9.70;;
50968;SDS011;36982;51.474;7.228;2022-11-20T04:24:52;12.77;;;9.10;;
50968;SDS011;36982;51.474;7.228;2022-11-20T04:27:18;15.97;;;9.77;;
50968;SDS011;36982;51.474;7.228;2022-11-20T04:29:44;15.63;;;9.70;;
50968;SDS011;36982;51.474;7.228;2022-11-20T04:32:09;14.73;;;9.57;;
50968;SDS011;36982;51.474;7.228;2022-11-20T04:34:35;16.87;;;10.23;;
50968;SDS011;36982;51.474;7.228;2022-11-20T04:37:00;14.37;;;9.60;;
50968;SDS011;36982;51.474;7.228;2022-11-20T04:39:26;14.77;;;9.53;;
50968;SDS011;36982;51.474;7.228;2022-11-20T04:41:52;14.27;;;9.90;;
50968;SDS011;36982;51.474;7.228;2022-11-20T04:44:37;15.30;;;9.97;;
50968;SDS011;36982;51.474;7.228;2022-11-20T04:47:03;14.60;;;9.30;;
50968;SDS011;36982;51.474;7.228;2022-11-20T04:49:28;16.27;;;9.60;;
50968;SDS011;36982;51.474;7.228;2022-11-20T04:51:54;14.30;;;9.33;;
50968;SDS011;36982;51.474;7.228;2022-11-20T04:54:20;16.53;;;9.50;;
50968;SDS011;36982;51.474;7.228;2022-11-20T04:56:49;14.53;;;9.20;;
50968;SDS011;36982;51.474;7.228;2022-11-20T04:59:15;13.00;;;8.83;;
50968;SDS011;36982;51.474;7.228;2022-11-20T05:01:40;12.07;;;8.10;;
50968;SDS011;36982;51.474;7.228;2022-11-20T05:04:06;13.43;;;8.50;;
50968;SDS011;36982;51.474;7.228;2022-11-20T05:06:32;14.10;;;9.23;;
50968;SDS011;36982;51.474;7.228;2022-11-20T05:08:57;13.90;;;9.03;;
50968;SDS011;36982;51.474;7.228;2022-11-20T05:11:23;12.13;;;7.93;;
50968;SDS011;36982;51.474;7.228;2022-11-20T05:13:49;13.70;;;8.77;;
50968;SDS011;36982;51.474;7.228;2022-11-20T05:16:18;13.17;;;9.23;;
50968;SDS011;36982;51.474;7.228;2022-11-20T05:18:44;12.30;;;8.40;;
50968;SDS011;36982;51.474;7.228;2022-11-20T05:21:11;14.00;;;9.00;;
50968;SDS011;36982;51.474;7.228;2022-11-20T05:23:37;14.63;;;8.97;;
50968;SDS011;36982;51.474;7.228;2022-11-20T05:26:04;15.00;;;9.70;;
50968;SDS011;36982;51.474;7.228;2022-11-20T05:28:31;14.83;;;9.77;;
50968;SDS011;36982;51.474;7.228;2022-11-20T05:31:04;14.97;;;9.30;;
50968;SDS011;36982;51.474;7.228;2022-11-20T05:33:34;13.53;;;9.20;;
50968;SDS011;36982;51.474;7.228;2022-11-20T05:36:01;15.30;;;9.73;;
50968;SDS011;36982;51.474;7.228;2022-11-20T05:38:28;13.03;;;8.80;;
50968;SDS011;36982;51.474;7.228;2022-11-20T05:40:53;13.83;;;9.40;;
50968;SDS011;36982;51.474;7.228;2022-11-20T05:43:19;15.23;;;9.43;;
50968;SDS011;36982;51.474;7.228;2022-11-20T05:45:51;14.03;;;9.70;;
50968;SDS011;36982;51.474;7.228;2022-11-20T05:48:20;15.17;;;9.43;;
50968;SDS011;36982;51.474;7.228;2022-11-20T05:50:46;13.30;;;8.93;;
50968;SDS011;36982;51.474;7.228;2022-11-20T05:53:12;15.53;;;8.73;;
50968;SDS011;36982;51.474;7.228;2022-11-20T05:55:38;14.53;;;9.37;;
50968;SDS011;36982;51.474;7.228;2022-11-20T05:58:04;14.57;;;9.13;;
50968;SDS011;36982;51.474;7.228;2022-11-20T06:00:30;14.50;;;9.27;;
50968;SDS011;36982;51.474;7.228;2022-11-20T06:02:55;17.60;;;10.70;;
50968;SDS011;36982;51.474;7.228;2022-11-20T06:05:21;14.63;;;9.47;;
50968;SDS011;36982;51.474;7.228;2022-11-20T06:07:47;16.03;;;9.50;;
50968;SDS011;36982;51.474;7.228;2022-11-20T06:10:12;15.67;;;9.80;;
50968;SDS011;36982;51.474;7.228;2022-11-20T06:12:38;16.27;;;9.43;;
50968;SDS011;36982;51.474;7.228;2022-11-20T06:15:04;15.03;;;9.63;;
50968;SDS011;36982;51.474;7.228;2022-11-20T06:17:30;15.40;;;10.13;;
50968;SDS011;36982;51.474;7.228;2022-11-20T06:19:56;15.37;;;9.70;;
50968;SDS011;36982;51.474;7.228;2022-11-20T06:22:21;13.10;;;8.50;;
50968;SDS011;36982;51.474;7.228;2022-11-20T06:24:47;14.60;;;9.40;;
50968;SDS011;36982;51.474;7.228;2022-11-20T06:27:13;13.50;;;9.40;;
50968;SDS011;36982;51.474;7.228;2022-11-20T06:29:38;13.77;;;9.10;;
50968;SDS011;36982;51.474;7.228;2022-11-20T06:32:04;17.07;;;9.30;;
50968;SDS011;36982;51.474;7.228;2022-11-20T06:34:29;13.37;;;9.33;;
50968;SDS011;36982;51.474;7.228;2022-11-20T06:36:55;12.47;;;8.97;;
50968;SDS011;36982;51.474;7.228;2022-11-20T06:39:21;13.03;;;8.70;;
50968;SDS011;36982;51.474;7.228;2022-11-20T06:41:46;14.00;;;8.90;;
50968;SDS011;36982;51.474;7.228;2022-11-20T06:44:12;12.17;;;8.83;;
50968;SDS011;36982;51.474;7.228;2022-11-20T06:46:37;15.23;;;9.43;;
50968;SDS011;36982;51.474;7.228;2022-11-20T06:49:03;12.93;;;9.30;;
50968;SDS011;36982;51.474;7.228;2022-11-20T06:51:28;15.37;;;8.80;;
50968;SDS011;36982;51.474;7.228;2022-11-20T06:53:54;13.10;;;8.80;;
50968;SDS011;36982;51.474;7.228;2022-11-20T06:56:20;15.77;;;8.97;;
50968;SDS011;36982;51.474;7.228;2022-11-20T06:58:45;14.57;;;9.10;;
50968;SDS011;36982;51.474;7.228;2022-11-20T07:01:12;12.73;;;8.87;;
50968;SDS011;36982;51.474;7.228;2022-11-20T07:03:39;13.70;;;8.97;;
50968;SDS011;36982;51.474;7.228;2022-11-20T07:06:05;12.90;;;8.07;;
50968;SDS011;36982;51.474;7.228;2022-11-20T07:08:31;13.23;;;8.43;;
50968;SDS011;36982;51.474;7.228;2022-11-20T07:10:58;11.97;;;8.27;;
50968;SDS011;36982;51.474;7.228;2022-11-20T07:13:25;12.70;;;8.53;;
50968;SDS011;36982;51.474;7.228;2022-11-20T07:15:52;15.63;;;8.97;;
50968;SDS011;36982;51.474;7.228;2022-11-20T07:18:17;15.33;;;9.20;;
50968;SDS011;36982;51.474;7.228;2022-11-20T07:20:43;13.40;;;8.70;;
50968;SDS011;36982;51.474;7.228;2022-11-20T07:23:08;12.17;;;8.63;;
50968;SDS011;36982;51.474;7.228;2022-11-20T07:25:34;13.77;;;8.70;;
50968;SDS011;36982;51.474;7.228;2022-11-20T07:28:01;15.67;;;9.80;;
50968;SDS011;36982;51.474;7.228;2022-11-20T07:30:27;12.70;;;8.70;;
50968;SDS011;36982;51.474;7.228;2022-11-20T07:32:53;12.70;;;8.73;;
50968;SDS011;36982;51.474;7.228;2022-11-20T07:35:20;14.17;;;9.10;;
50968;SDS011;36982;51.474;7.228;2022-11-20T07:37:46;14.77;;;9.20;;
50968;SDS011;36982;51.474;7.228;2022-11-20T07:40:13;13.97;;;9.10;;
50968;SDS011;36982;51.474;7.228;2022-11-20T07:42:39;14.37;;;9.37;;
50968;SDS011;36982;51.474;7.228;2022-11-20T07:45:12;13.97;;;9.37;;
50968;SDS011;36982;51.474;7.228;2022-11-20T07:47:38;16.30;;;9.50;;
50968;SDS011;36982;51.474;7.228;2022-11-20T07:50:04;15.00;;;9.27;;
50968;SDS011;36982;51.474;7.228;2022-11-20T07:52:30;14.77;;;9.43;;
50968;SDS011;36982;51.474;7.228;2022-11-20T07:54:55;17.23;;;10.10;;
50968;SDS011;36982;51.474;7.228;2022-11-20T07:57:21;18.10;;;10.43;;
50968;SDS011;36982;51.474;7.228;2022-11-20T07:59:46;14.93;;;9.27;;
50968;SDS011;36982;51.474;7.228;2022-11-20T08:02:12;16.30;;;10.10;;
50968;SDS011;36982;51.474;7.228;2022-11-20T08:04:38;15.87;;;10.57;;
50968;SDS011;36982;51.474;7.228;2022-11-20T08:07:03;17.60;;;10.57;;
50968;SDS011;36982;51.474;7.228;2022-11-20T08:09:29;21.30;;;11.53;;
50968;SDS011;36982;51.474;7.228;2022-11-20T08:11:54;18.50;;;10.97;;
50968;SDS011;36982;51.474;7.228;2022-11-20T08:14:39;21.93;;;12.13;;
50968;SDS011;36982;51.474;7.228;2022-11-20T08:17:04;20.27;;;11.33;;
50968;SDS011;36982;51.474;7.228;2022-11-20T08:19:30;19.03;;;10.83;;
50968;SDS011;36982;51.474;7.228;2022-11-20T08:21:55;17.33;;;10.43;;
50968;SDS011;36982;51.474;7.228;2022-11-20T08:24:21;16.83;;;10.73;;
50968;SDS011;36982;51.474;7.228;2022-11-20T08:26:46;18.30;;;10.17;;
50968;SDS011;36982;51.474;7.228;2022-11-20T08:29:12;17.27;;;10.23;;
50968;SDS011;36982;51.474;7.228;2022-11-20T08:31:38;18.73;;;10.80;;
50968;SDS011;36982;51.474;7.228;2022-11-20T08:34:03;17.07;;;10.60;;
50968;SDS011;36982;51.474;7.228;2022-11-20T08:36:32;18.77;;;9.87;;
50968;SDS011;36982;51.474;7.228;2022-11-20T08:38:58;17.07;;;10.03;;
50968;SDS011;36982;51.474;7.228;2022-11-20T08:41:24;15.23;;;10.33;;
50968;SDS011;36982;51.474;7.228;2022-11-20T08:44:00;16.57;;;10.23;;
50968;SDS011;36982;51.474;7.228;2022-11-20T08:46:31;17.83;;;10.57;;
50968;SDS011;36982;51.474;7.228;2022-11-20T08:49:02;17.77;;;10.47;;
50968;SDS011;36982;51.474;7.228;2022-11-20T08:51:29;16.50;;;10.37;;
50968;SDS011;36982;51.474;7.228;2022-11-20T08:53:55;17.10;;;11.23;;
50968;SDS011;36982;51.474;7.228;2022-11-20T08:56:20;20.43;;;12.33;;
50968;SDS011;36982;51.474;7.228;2022-11-20T08:58:46;18.83;;;11.93;;
50968;SDS011;36982;51.474;7.228;2022-11-20T09:01:12;20.70;;;13.37;;
50968;SDS011;36982;51.474;7.228;2022-11-20T09:03:37;20.07;;;12.97;;
50968;SDS011;36982;51.474;7.228;2022-11-20T09:06:04;22.03;;;14.07;;
50968;SDS011;36982;51.474;7.228;2022-11-20T09:08:31;20.87;;;12.40;;
50968;SDS011;36982;51.474;7.228;2022-11-20T09:10:57;22.93;;;13.87;;
50968;SDS011;36982;51.474;7.228;2022-11-20T09:13:23;23.77;;;13.87;;
50968;SDS011;36982;51.474;7.228;2022-11-20T09:15:54;22.20;;;13.27;;
50968;SDS011;36982;51.474;7.228;2022-11-20T09:18:21;19.80;;;13.10;;
50968;SDS011;36982;51.474;7.228;2022-11-20T09:20:47;23.50;;;13.13;;
50968;SDS011;36982;51.474;7.228;2022-11-20T09:23:14;21.03;;;13.40;;
50968;SDS011;36982;51.474;7.228;2022-11-20T09:25:40;21.03;;;13.00;;
50968;SDS011;36982;51.474;7.228;2022-11-20T09:28:06;21.30;;;13.83;;
50968;SDS011;36982;51.474;7.228;2022-11-20T09:30:32;22.77;;;14.03;;
50968;SDS011;36982;51.474;7.228;2022-11-20T09:32:58;21.30;;;12.90;;
50968;SDS011;36982;51.474;7.228;2022-11-20T09:35:23;22.00;;;13.03;;
50968;SDS011;36982;51.474;7.228;2022-11-20T09:37:49;20.60;;;11.43;;
50968;SDS011;36982;51.474;7.228;2022-11-20T09:40:22;19.70;;;11.23;;
50968;SDS011;36982;51.474;7.228;2022-11-20T09:42:53;17.33;;;11.17;;
50968;SDS011;36982;51.474;7.228;2022-11-20T09:48:24;20.13;;;12.23;;
50968;SDS011;36982;51.474;7.228;2022-11-20T09:54:03;17.60;;;10.83;;
50968;SDS011;36982;51.474;7.228;2022-11-20T09:56:40;13.07;;;8.87;;
50968;SDS011;36982;51.474;7.228;2022-11-20T09:59:53;12.87;;;8.37;;
50968;SDS011;36982;51.474;7.228;2022-11-20T10:02:02;10.67;;;7.27;;
50968;SDS011;36982;51.474;7.228;2022-11-20T10:04:59;12.30;;;7.73;;
50968;SDS011;36982;51.474;7.228;2022-11-20T10:30:14;11.87;;;8.13;;
50968;SDS011;36982;51.474;7.228;2022-11-20T10:33:04;10.37;;;7.53;;
50968;SDS011;36982;51.474;7.228;2022-11-20T10:38:29;9.97;;;7.67;;
50968;SDS011;36982;51.474;7.228;2022-11-20T10:41:00;12.30;;;7.80;;
50968;SDS011;36982;51.474;7.228;2022-11-20T10:43:46;10.27;;;6.90;;
50968;SDS011;36982;51.474;7.228;2022-11-20T10:46:17;10.90;;;7.50;;
50968;SDS011;36982;51.474;7.228;2022-11-20T10:48:47;10.87;;;7.00;;
50968;SDS011;36982;51.474;7.228;2022-11-20T10:54:20;10.17;;;6.50;;
50968;SDS011;36982;51.474;7.228;2022-11-20T10:56:50;9.37;;;6.17;;
50968;SDS011;36982;51.474;7.228;2022-11-20T11:02:21;9.30;;;5.97;;
50968;SDS011;36982;51.474;7.228;2022-11-20T11:04:50;9.97;;;6.43;;
50968;SDS011;36982;51.474;7.228;2022-11-20T11:07:19;10.07;;;6.73;;
50968;SDS011;36982;51.474;7.228;2022-11-20T11:09:49;8.50;;;6.23;;
50968;SDS011;36982;51.474;7.228;2022-11-20T11:12:17;9.33;;;6.50;;
50968;SDS011;36982;51.474;7.228;2022-11-20T11:14:52;11.40;;;6.70;;
50968;SDS011;36982;51.474;7.228;2022-11-20T11:17:26;8.83;;;6.33;;
50968;SDS011;36982;51.474;7.228;2022-11-20T11:19:59;11.27;;;6.53;;
50968;SDS011;36982;51.474;7.228;2022-11-20T11:22:32;9.73;;;6.87;;
50968;SDS011;36982;51.474;7.228;2022-11-20T11:24:59;10.87;;;6.63;;
50968;SDS011;36982;51.474;7.228;2022-11-20T11:27:25;11.03;;;6.60;;
50968;SDS011;36982;51.474;7.228;2022-11-20T11:29:50;9.57;;;6.50;;
50968;SDS011;36982;51.474;7.228;2022-11-20T11:32:27;7.63;;;5.60;;
50968;SDS011;36982;51.474;7.228;2022-11-20T11:35:03;8.77;;;5.67;;
50968;SDS011;36982;51.474;7.228;2022-11-20T11:37:35;8.27;;;5.83;;
50968;SDS011;36982;51.474;7.228;2022-11-20T11:40:03;11.47;;;6.13;;
50968;SDS011;36982;51.474;7.228;2022-11-20T11:42:30;8.40;;;5.87;;
50968;SDS011;36982;51.474;7.228;2022-11-20T11:44:56;9.60;;;5.50;;
50968;SDS011;36982;51.474;7.228;2022-11-20T11:47:31;9.23;;;6.13;;
50968;SDS011;36982;51.474;7.228;2022-11-20T11:55:17;9.00;;;5.70;;
50968;SDS011;36982;51.474;7.228;2022-11-20T12:00:45;8.23;;;5.90;;
50968;SDS011;36982;51.474;7.228;2022-11-20T12:03:24;9.67;;;6.80;;
50968;SDS011;36982;51.474;7.228;2022-11-20T12:05:58;9.23;;;5.77;;
50968;SDS011;36982;51.474;7.228;2022-11-20T12:08:31;9.40;;;6.40;;
50968;SDS011;36982;51.474;7.228;2022-11-20T12:16:07;9.83;;;6.33;;
50968;SDS011;36982;51.474;7.228;2022-11-20T12:18:37;10.67;;;6.53;;
50968;SDS011;36982;51.474;7.228;2022-11-20T12:38:04;9.00;;;6.23;;
50968;SDS011;36982;51.474;7.228;2022-11-20T12:49:47;10.97;;;7.23;;
50968;SDS011;36982;51.474;7.228;2022-11-20T12:52:31;9.57;;;6.37;;
50968;SDS011;36982;51.474;7.228;2022-11-20T12:55:12;9.60;;;6.73;;
50968;SDS011;36982;51.474;7.228;2022-11-20T12:57:53;11.93;;;7.33;;
50968;SDS011;36982;51.474;7.228;2022-11-20T13:00:23;11.67;;;6.93;;
50968;SDS011;36982;51.474;7.228;2022-11-20T13:05:27;11.17;;;7.37;;
50968;SDS011;36982;51.474;7.228;2022-11-20T13:07:57;11.63;;;6.63;;
50968;SDS011;36982;51.474;7.228;2022-11-20T13:13:22;11.00;;;7.40;;
50968;SDS011;36982;51.474;7.228;2022-11-20T13:16:02;11.77;;;6.77;;
50968;SDS011;36982;51.474;7.228;2022-11-20T13:18:31;11.33;;;7.30;;
50968;SDS011;36982;51.474;7.228;2022-11-20T13:21:14;10.83;;;7.00;;
50968;SDS011;36982;51.474;7.228;2022-11-20T13:23:41;10.07;;;6.67;;
50968;SDS011;36982;51.474;7.228;2022-11-20T13:26:20;10.80;;;7.03;;
50968;SDS011;36982;51.474;7.228;2022-11-20T13:28:48;10.07;;;6.67;;
50968;SDS011;36982;51.474;7.228;2022-11-20T13:31:34;12.67;;;7.70;;
50968;SDS011;36982;51.474;7.228;2022-11-20T13:34:02;10.80;;;7.00;;
50968;SDS011;36982;51.474;7.228;2022-11-20T13:36:30;11.10;;;7.07;;
50968;SDS011;36982;51.474;7.228;2022-11-20T13:38:57;11.23;;;7.40;;
50968;SDS011;36982;51.474;7.228;2022-11-20T13:41:28;10.60;;;6.83;;
50968;SDS011;36982;51.474;7.228;2022-11-20T13:46:39;9.73;;;6.87;;
50968;SDS011;36982;51.474;7.228;2022-11-20T13:49:10;12.20;;;7.20;;
50968;SDS011;36982;51.474;7.228;2022-11-20T13:51:49;11.33;;;7.53;;
50968;SDS011;36982;51.474;7.228;2022-11-20T13:57:21;10.97;;;7.40;;
50968;SDS011;36982;51.474;7.228;2022-11-20T14:00:22;12.17;;;7.50;;
50968;SDS011;36982;51.474;7.228;2022-11-20T14:05:53;13.47;;;7.20;;
50968;SDS011;36982;51.474;7.228;2022-11-20T14:08:26;10.57;;;6.60;;
50968;SDS011;36982;51.474;7.228;2022-11-20T14:11:14;9.60;;;6.83;;
50968;SDS011;36982;51.474;7.228;2022-11-20T14:13:56;13.07;;;7.33;;
50968;SDS011;36982;51.474;7.228;2022-11-20T14:16:25;12.63;;;7.57;;
50968;SDS011;36982;51.474;7.228;2022-11-20T14:18:52;11.87;;;8.00;;
50968;SDS011;36982;51.474;7.228;2022-11-20T14:21:26;13.93;;;8.73;;
50968;SDS011;36982;51.474;7.228;2022-11-20T14:24:06;11.23;;;7.93;;
50968;SDS011;36982;51.474;7.228;2022-11-20T14:26:36;13.13;;;8.43;;
50968;SDS011;36982;51.474;7.228;2022-11-20T14:29:10;11.37;;;7.93;;
50968;SDS011;36982;51.474;7.228;2022-11-20T14:31:44;13.97;;;8.37;;
50968;SDS011;36982;51.474;7.228;2022-11-20T14:34:15;13.57;;;8.57;;
50968;SDS011;36982;51.474;7.228;2022-11-20T14:36:53;13.10;;;8.47;;
50968;SDS011;36982;51.474;7.228;2022-11-20T14:39:22;12.27;;;8.70;;
50968;SDS011;36982;51.474;7.228;2022-11-20T14:41:58;13.20;;;8.20;;
50968;SDS011;36982;51.474;7.228;2022-11-20T14:44:25;12.90;;;8.53;;
50968;SDS011;36982;51.474;7.228;2022-11-20T14:46:54;13.73;;;8.77;;
50968;SDS011;36982;51.474;7.228;2022-11-20T14:49:20;12.57;;;8.30;;
50968;SDS011;36982;51.474;7.228;2022-11-20T14:51:46;12.63;;;8.60;;
50968;SDS011;36982;51.474;7.228;2022-11-20T14:54:22;15.33;;;9.17;;
50968;SDS011;36982;51.474;7.228;2022-11-20T14:57:01;14.30;;;9.00;;
50968;SDS011;36982;51.474;7.228;2022-11-20T14:59:31;14.73;;;8.63;;
50968;SDS011;36982;51.474;7.228;2022-11-20T15:02:05;13.67;;;8.63;;
50968;SDS011;36982;51.474;7.228;2022-11-20T15:04:43;13.33;;;8.70;;
50968;SDS011;36982;51.474;7.228;2022-11-20T15:07:28;12.03;;;8.73;;
50968;SDS011;36982;51.474;7.228;2022-11-20T15:09:59;14.43;;;9.07;;
50968;SDS011;36982;51.474;7.228;2022-11-20T15:12:25;16.20;;;9.67;;
50968;SDS011;36982;51.474;7.228;2022-11-20T15:14:51;15.53;;;9.73;;
50968;SDS011;36982;51.474;7.228;2022-11-20T15:17:16;16.07;;;9.63;;
50968;SDS011;36982;51.474;7.228;2022-11-20T15:19:42;16.10;;;10.23;;
50968;SDS011;36982;51.474;7.228;2022-11-20T15:22:09;14.57;;;9.03;;
50968;SDS011;36982;51.474;7.228;2022-11-20T15:24:41;13.30;;;8.77;;
50968;SDS011;36982;51.474;7.228;2022-11-20T15:27:07;14.87;;;10.17;;
50968;SDS011;36982;51.474;7.228;2022-11-20T15:29:34;14.33;;;9.20;;
50968;SDS011;36982;51.474;7.228;2022-11-20T15:31:59;14.33;;;9.20;;
50968;SDS011;36982;51.474;7.228;2022-11-20T15:34:26;16.53;;;9.90;;
50968;SDS011;36982;51.474;7.228;2022-11-20T15:36:52;15.37;;;9.87;;
50968;SDS011;36982;51.474;7.228;2022-11-20T15:39:18;15.00;;;9.40;;
50968;SDS011;36982;51.474;7.228;2022-11-20T15:41:43;17.07;;;9.90;;
50968;SDS011;36982;51.474;7.228;2022-11-20T15:44:09;14.87;;;9.17;;
50968;SDS011;36982;51.474;7.228;2022-11-20T15:46:36;15.13;;;10.00;;
50968;SDS011;36982;51.474;7.228;2022-11-20T15:49:05;15.60;;;10.13;;
50968;SDS011;36982;51.474;7.228;2022-11-20T15:51:37;15.80;;;10.73;;
50968;SDS011;36982;51.474;7.228;2022-11-20T15:54:18;18.73;;;10.87;;
50968;SDS011;36982;51.474;7.228;2022-11-20T15:56:45;15.90;;;10.13;;
50968;SDS011;36982;51.474;7.228;2022-11-20T15:59:12;15.30;;;9.80;;
50968;SDS011;36982;51.474;7.228;2022-11-20T16:01:39;16.67;;;11.17;;
50968;SDS011;36982;51.474;7.228;2022-11-20T16:04:09;17.17;;;10.73;;
50968;SDS011;36982;51.474;7.228;2022-11-20T16:06:35;15.80;;;10.17;;
50968;SDS011;36982;51.474;7.228;2022-11-20T16:09:01;16.30;;;10.83;;
50968;SDS011;36982;51.474;7.228;2022-11-20T16:11:27;20.77;;;12.00;;
50968;SDS011;36982;51.474;7.228;2022-11-20T16:13:52;17.23;;;11.40;;
50968;SDS011;36982;51.474;7.228;2022-11-20T16:16:37;15.53;;;10.07;;
50968;SDS011;36982;51.474;7.228;2022-11-20T16:19:04;17.47;;;11.27;;